sensor_id;sensor_type;location;lat;lon;timestamp;noise_LAeq;noise_LA_min;noise_LA_max;noise_LA01;noise_LA95
40465;Laerm;30489;48.982;8.394;2024-02-15T00:00:37;39.96;38.21;41.53;;
40465;Laerm;30489;48.982;8.394;2024-02-15T00:02:47;39.94;37.70;41.30;;
40465;Laerm;30489;48.982;8.394;2024-02-15T00:04:57;39.93;38.05;41.46;;
40465;Laerm;30489;48.982;8.394;2024-02-15T00:07:07;39.92;38.37;41.46;;
40465;Laerm;30489;48.982;8.394;2024-02-15T00:09:18;39.90;38.05;41.30;;
40465;Laerm;30489;48.982;8.394;2024-02-15T00:11:28;39.91;38.05;41.61;;
40465;Laerm;30489;48.982;8.394;2024-02-15T00:13:38;39.92;38.21;41.30;;
40465;Laerm;30489;48.982;8.394;2024-02-15T00:15:48;39.90;37.88;41.38;;
40465;Laerm;30489;48.982;8.394;2024-02-15T00:18:00;39.90;38.21;41.61;;
40465;Laerm;30489;48.982;8.394;2024-02-15T00:20:10;39.88;37.70;41.46;;
40465;Laerm;30489;48.982;8.394;2024-02-15T00:22:21;39.88;37.52;41.38;;
40465;Laerm;30489;48.982;8.394;2024-02-15T00:24:31;39.87;38.21;41.38;;
40465;Laerm;30489;48.982;8.394;2024-02-15T00:26:41;39.87;37.32;41.22;;
40465;Laerm;30489;48.982;8.394;2024-02-15T00:28:52;39.87;38.05;42.41;;
40465;Laerm;30489;48.982;8.394;2024-02-15T00:31:02;39.88;38.21;41.89;;
40465;Laerm;30489;48.982;8.394;2024-02-15T00:33:13;39.88;38.21;41.38;;
40465;Laerm;30489;48.982;8.394;2024-02-15T00:35:24;39.86;37.88;41.22;;
40465;Laerm;30489;48.982;8.394;2024-02-15T00:37:35;39.84;38.21;41.38;;
40465;Laerm;30489;48.982;8.394;2024-02-15T00:39:45;39.85;38.05;41.30;;
40465;Laerm;30489;48.982;8.394;2024-02-15T00:41:55;39.84;38.05;41.14;;
40465;Laerm;30489;48.982;8.394;2024-02-15T00:44:05;39.82;38.05;41.38;;
40465;Laerm;30489;48.982;8.394;2024-02-15T00:46:16;39.83;37.88;41.53;;
40465;Laerm;30489;48.982;8.394;2024-02-15T00:48:26;39.81;37.88;41.26;;
40465;Laerm;30489;48.982;8.394;2024-02-15T00:50:38;39.80;38.05;41.38;;
40465;Laerm;30489;48.982;8.394;2024-02-15T00:52:49;39.81;38.21;41.38;;
40465;Laerm;30489;48.982;8.394;2024-02-15T00:54:59;39.80;37.88;41.38;;
40465;Laerm;30489;48.982;8.394;2024-02-15T00:57:09;39.80;37.70;41.38;;
40465;Laerm;30489;48.982;8.394;2024-02-15T00:59:19;39.80;37.88;41.22;;
40465;Laerm;30489;48.982;8.394;2024-02-15T01:01:29;39.79;37.88;41.46;;
40465;Laerm;30489;48.982;8.394;2024-02-15T01:03:40;39.80;37.88;41.30;;
40465;Laerm;30489;48.982;8.394;2024-02-15T01:05:50;39.78;37.70;41.22;;
40465;Laerm;30489;48.982;8.394;2024-02-15T01:08:01;39.78;38.02;41.22;;
40465;Laerm;30489;48.982;8.394;2024-02-15T01:10:11;39.79;37.88;41.68;;
40465;Laerm;30489;48.982;8.394;2024-02-15T01:12:22;39.77;37.88;41.30;;
40465;Laerm;30489;48.982;8.394;2024-02-15T01:14:32;39.77;37.88;41.22;;
40465;Laerm;30489;48.982;8.394;2024-02-15T01:16:42;39.77;37.88;41.14;;
40465;Laerm;30489;48.982;8.394;2024-02-15T01:18:53;39.77;37.88;41.14;;
40465;Laerm;30489;48.982;8.394;2024-02-15T01:21:03;39.73;37.12;41.46;;
40465;Laerm;30489;48.982;8.394;2024-02-15T01:23:14;39.72;37.88;41.14;;
40465;Laerm;30489;48.982;8.394;2024-02-15T01:25:24;39.70;37.88;41.38;;
40465;Laerm;30489;48.982;8.394;2024-02-15T01:27:34;39.72;37.88;41.30;;
40465;Laerm;30489;48.982;8.394;2024-02-15T01:29:44;39.69;37.52;41.46;;
40465;Laerm;30489;48.982;8.394;2024-02-15T01:31:55;39.68;37.70;41.46;;
40465;Laerm;30489;48.982;8.394;2024-02-15T01:34:05;39.68;37.32;41.30;;
40465;Laerm;30489;48.982;8.394;2024-02-15T01:36:16;39.67;37.52;41.30;;
40465;Laerm;30489;48.982;8.394;2024-02-15T01:38:26;39.68;37.88;41.38;;
40465;Laerm;30489;48.982;8.394;2024-02-15T01:40:37;39.65;37.70;41.38;;
40465;Laerm;30489;48.982;8.394;2024-02-15T01:42:47;39.65;37.70;41.22;;
40465;Laerm;30489;48.982;8.394;2024-02-15T01:44:59;39.64;37.88;41.38;;
40465;Laerm;30489;48.982;8.394;2024-02-15T01:47:13;39.65;37.52;41.22;;
40465;Laerm;30489;48.982;8.394;2024-02-15T01:49:23;39.63;37.70;41.30;;
40465;Laerm;30489;48.982;8.394;2024-02-15T01:51:35;39.64;37.52;41.14;;
40465;Laerm;30489;48.982;8.394;2024-02-15T01:53:47;39.63;37.70;41.14;;
40465;Laerm;30489;48.982;8.394;2024-02-15T01:55:57;39.63;37.70;41.14;;
40465;Laerm;30489;48.982;8.394;2024-02-15T01:58:10;39.63;37.88;41.38;;
40465;Laerm;30489;48.982;8.394;2024-02-15T02:00:20;39.63;37.88;41.19;;
40465;Laerm;30489;48.982;8.394;2024-02-15T02:02:31;39.62;37.70;41.14;;
40465;Laerm;30489;48.982;8.394;2024-02-15T02:04:43;39.60;37.70;41.14;;
40465;Laerm;30489;48.982;8.394;2024-02-15T02:06:55;39.62;37.87;41.22;;
40465;Laerm;30489;48.982;8.394;2024-02-15T02:09:11;39.61;37.70;41.14;;
40465;Laerm;30489;48.982;8.394;2024-02-15T02:11:25;39.62;37.70;41.46;;
40465;Laerm;30489;48.982;8.394;2024-02-15T02:13:36;39.63;37.52;41.30;;
40465;Laerm;30489;48.982;8.394;2024-02-15T02:15:46;39.60;37.87;41.53;;
40465;Laerm;30489;48.982;8.394;2024-02-15T02:17:56;39.61;37.70;41.30;;
40465;Laerm;30489;48.982;8.394;2024-02-15T02:20:08;39.60;37.52;41.22;;
40465;Laerm;30489;48.982;8.394;2024-02-15T02:22:21;39.59;37.88;41.22;;
40465;Laerm;30489;48.982;8.394;2024-02-15T02:24:31;39.60;37.52;41.38;;
40465;Laerm;30489;48.982;8.394;2024-02-15T02:26:47;39.62;37.70;41.14;;
40465;Laerm;30489;48.982;8.394;2024-02-15T02:28:57;39.61;37.70;41.22;;
40465;Laerm;30489;48.982;8.394;2024-02-15T02:31:09;39.63;37.70;41.46;;
40465;Laerm;30489;48.982;8.394;2024-02-15T02:33:21;39.59;37.52;41.06;;
40465;Laerm;30489;48.982;8.394;2024-02-15T02:35:32;39.60;37.52;41.38;;
40465;Laerm;30489;48.982;8.394;2024-02-15T02:37:43;39.61;37.88;41.22;;
40465;Laerm;30489;48.982;8.394;2024-02-15T02:39:53;39.61;37.52;41.22;;
40465;Laerm;30489;48.982;8.394;2024-02-15T02:42:04;39.60;37.70;41.22;;
40465;Laerm;30489;48.982;8.394;2024-02-15T02:44:14;39.60;37.52;41.06;;
40465;Laerm;30489;48.982;8.394;2024-02-15T02:46:24;39.60;37.88;41.14;;
40465;Laerm;30489;48.982;8.394;2024-02-15T02:48:34;39.60;37.53;41.14;;
40465;Laerm;30489;48.982;8.394;2024-02-15T02:50:44;39.59;37.70;41.14;;
40465;Laerm;30489;48.982;8.394;2024-02-15T02:52:55;39.59;37.70;41.03;;
40465;Laerm;30489;48.982;8.394;2024-02-15T02:55:05;39.60;37.87;41.14;;
40465;Laerm;30489;48.982;8.394;2024-02-15T02:57:18;39.60;37.12;41.14;;
40465;Laerm;30489;48.982;8.394;2024-02-15T02:59:28;39.62;37.70;41.30;;
40465;Laerm;30489;48.982;8.394;2024-02-15T03:01:38;39.60;37.52;41.06;;
40465;Laerm;30489;48.982;8.394;2024-02-15T03:03:49;39.60;37.70;41.06;;
40465;Laerm;30489;48.982;8.394;2024-02-15T03:06:00;39.58;37.70;41.14;;
40465;Laerm;30489;48.982;8.394;2024-02-15T03:08:11;39.58;37.70;41.06;;
40465;Laerm;30489;48.982;8.394;2024-02-15T03:10:22;39.60;37.70;41.14;;
40465;Laerm;30489;48.982;8.394;2024-02-15T03:12:34;39.58;37.52;41.46;;
40465;Laerm;30489;48.982;8.394;2024-02-15T03:14:45;39.57;37.32;41.06;;
40465;Laerm;30489;48.982;8.394;2024-02-15T03:16:55;39.57;37.70;41.26;;
40465;Laerm;30489;48.982;8.394;2024-02-15T03:19:06;39.58;37.32;41.30;;
40465;Laerm;30489;48.982;8.394;2024-02-15T03:21:19;39.58;37.52;41.22;;
40465;Laerm;30489;48.982;8.394;2024-02-15T03:23:30;39.58;37.70;41.22;;
40465;Laerm;30489;48.982;8.394;2024-02-15T03:25:42;39.56;37.52;41.14;;
40465;Laerm;30489;48.982;8.394;2024-02-15T03:27:53;39.55;37.32;41.22;;
40465;Laerm;30489;48.982;8.394;2024-02-15T03:30:04;39.56;37.70;41.30;;
40465;Laerm;30489;48.982;8.394;2024-02-15T03:32:14;39.54;37.52;41.30;;
40465;Laerm;30489;48.982;8.394;2024-02-15T03:34:24;39.53;37.52;41.30;;
40465;Laerm;30489;48.982;8.394;2024-02-15T03:36:35;39.53;37.32;41.06;;
40465;Laerm;30489;48.982;8.394;2024-02-15T03:38:45;39.52;37.12;41.06;;
40465;Laerm;30489;48.982;8.394;2024-02-15T03:40:56;39.53;37.52;41.30;;
40465;Laerm;30489;48.982;8.394;2024-02-15T03:43:07;39.52;37.70;41.22;;
40465;Laerm;30489;48.982;8.394;2024-02-15T03:45:18;39.51;37.52;40.98;;
40465;Laerm;30489;48.982;8.394;2024-02-15T03:47:28;39.51;37.70;41.14;;
40465;Laerm;30489;48.982;8.394;2024-02-15T03:49:39;39.52;37.52;41.06;;
40465;Laerm;30489;48.982;8.394;2024-02-15T03:51:51;39.53;37.52;41.38;;
40465;Laerm;30489;48.982;8.394;2024-02-15T03:54:01;39.52;37.32;41.06;;
40465;Laerm;30489;48.982;8.394;2024-02-15T03:56:14;39.51;37.52;41.30;;
40465;Laerm;30489;48.982;8.394;2024-02-15T03:58:24;39.52;37.52;41.61;;
40465;Laerm;30489;48.982;8.394;2024-02-15T04:00:34;39.53;37.52;40.98;;
40465;Laerm;30489;48.982;8.394;2024-02-15T04:02:44;39.52;37.32;41.14;;
40465;Laerm;30489;48.982;8.394;2024-02-15T04:04:54;39.53;37.12;41.38;;
40465;Laerm;30489;48.982;8.394;2024-02-15T04:07:05;39.51;37.52;40.98;;
40465;Laerm;30489;48.982;8.394;2024-02-15T04:09:15;39.50;37.32;41.14;;
40465;Laerm;30489;48.982;8.394;2024-02-15T04:11:27;39.50;37.52;41.22;;
40465;Laerm;30489;48.982;8.394;2024-02-15T04:13:37;39.51;37.70;41.14;;
40465;Laerm;30489;48.982;8.394;2024-02-15T04:15:47;39.50;37.52;41.22;;
40465;Laerm;30489;48.982;8.394;2024-02-15T04:17:59;39.50;37.32;40.98;;
40465;Laerm;30489;48.982;8.394;2024-02-15T04:20:10;39.52;37.32;41.06;;
40465;Laerm;30489;48.982;8.394;2024-02-15T04:22:21;39.49;37.32;41.06;;
40465;Laerm;30489;48.982;8.394;2024-02-15T04:24:31;39.52;37.32;41.06;;
40465;Laerm;30489;48.982;8.394;2024-02-15T04:26:42;39.51;37.88;41.14;;
40465;Laerm;30489;48.982;8.394;2024-02-15T04:28:55;39.52;37.52;41.14;;
40465;Laerm;30489;48.982;8.394;2024-02-15T04:31:05;39.52;37.52;41.53;;
40465;Laerm;30489;48.982;8.394;2024-02-15T04:33:18;39.51;37.32;41.46;;
40465;Laerm;30489;48.982;8.394;2024-02-15T04:35:28;39.50;37.32;41.14;;
40465;Laerm;30489;48.982;8.394;2024-02-15T04:37:41;39.50;37.52;41.38;;
40465;Laerm;30489;48.982;8.394;2024-02-15T04:39:51;39.51;37.32;42.29;;
40465;Laerm;30489;48.982;8.394;2024-02-15T04:42:02;39.50;37.70;41.22;;
40465;Laerm;30489;48.982;8.394;2024-02-15T04:44:12;39.50;37.12;41.22;;
40465;Laerm;30489;48.982;8.394;2024-02-15T04:46:22;39.51;37.52;41.06;;
40465;Laerm;30489;48.982;8.394;2024-02-15T04:48:33;39.52;37.52;41.14;;
40465;Laerm;30489;48.982;8.394;2024-02-15T04:50:44;39.51;37.52;41.06;;
40465;Laerm;30489;48.982;8.394;2024-02-15T04:52:55;39.51;37.12;41.46;;
40465;Laerm;30489;48.982;8.394;2024-02-15T04:55:05;39.51;37.52;41.22;;
40465;Laerm;30489;48.982;8.394;2024-02-15T04:57:15;39.50;37.52;41.14;;
40465;Laerm;30489;48.982;8.394;2024-02-15T04:59:27;39.51;37.52;41.14;;
40465;Laerm;30489;48.982;8.394;2024-02-15T05:01:39;39.50;37.70;41.06;;
40465;Laerm;30489;48.982;8.394;2024-02-15T05:03:50;39.49;37.32;41.06;;
40465;Laerm;30489;48.982;8.394;2024-02-15T05:06:00;39.49;37.52;40.98;;
40465;Laerm;30489;48.982;8.394;2024-02-15T05:08:11;39.49;37.52;41.14;;
40465;Laerm;30489;48.982;8.394;2024-02-15T05:10:21;39.50;37.70;41.22;;
40465;Laerm;30489;48.982;8.394;2024-02-15T05:12:31;39.50;37.32;41.14;;
40465;Laerm;30489;48.982;8.394;2024-02-15T05:14:41;39.49;37.52;41.06;;
40465;Laerm;30489;48.982;8.394;2024-02-15T05:16:51;39.49;37.70;40.98;;
40465;Laerm;30489;48.982;8.394;2024-02-15T05:19:02;39.49;37.32;41.06;;
40465;Laerm;30489;48.982;8.394;2024-02-15T05:21:13;39.49;37.32;41.14;;
40465;Laerm;30489;48.982;8.394;2024-02-15T05:23:23;39.49;37.52;41.22;;
40465;Laerm;30489;48.982;8.394;2024-02-15T05:25:33;39.48;37.70;41.22;;
40465;Laerm;30489;48.982;8.394;2024-02-15T05:27:45;39.48;37.32;41.30;;
40465;Laerm;30489;48.982;8.394;2024-02-15T05:29:56;39.48;37.32;41.22;;
40465;Laerm;30489;48.982;8.394;2024-02-15T05:32:06;39.46;37.52;41.30;;
40465;Laerm;30489;48.982;8.394;2024-02-15T05:34:17;39.48;37.52;41.22;;
40465;Laerm;30489;48.982;8.394;2024-02-15T05:36:27;39.47;37.32;41.68;;
40465;Laerm;30489;48.982;8.394;2024-02-15T05:38:40;39.49;37.12;41.46;;
40465;Laerm;30489;48.982;8.394;2024-02-15T05:40:50;39.48;37.53;41.14;;
40465;Laerm;30489;48.982;8.394;2024-02-15T05:43:00;39.47;37.32;41.30;;
40465;Laerm;30489;48.982;8.394;2024-02-15T05:47:34;39.49;37.52;41.30;;
40465;Laerm;30489;48.982;8.394;2024-02-15T05:49:45;39.49;37.32;40.98;;
40465;Laerm;30489;48.982;8.394;2024-02-15T05:51:57;39.48;37.32;41.41;;
40465;Laerm;30489;48.982;8.394;2024-02-15T05:54:07;39.48;37.32;41.22;;
40465;Laerm;30489;48.982;8.394;2024-02-15T05:56:17;39.50;37.52;41.22;;
40465;Laerm;30489;48.982;8.394;2024-02-15T05:58:27;39.48;37.12;41.06;;
40465;Laerm;30489;48.982;8.394;2024-02-15T06:00:37;39.49;37.52;41.06;;
40465;Laerm;30489;48.982;8.394;2024-02-15T06:02:48;39.52;37.52;41.14;;
40465;Laerm;30489;48.982;8.394;2024-02-15T06:04:59;39.51;37.70;41.38;;
40465;Laerm;30489;48.982;8.394;2024-02-15T06:07:13;39.48;37.52;41.06;;
40465;Laerm;30489;48.982;8.394;2024-02-15T06:09:23;39.50;37.70;41.06;;
40465;Laerm;30489;48.982;8.394;2024-02-15T06:11:36;39.49;36.45;41.14;;
40465;Laerm;30489;48.982;8.394;2024-02-15T06:13:48;39.49;37.70;41.14;;
40465;Laerm;30489;48.982;8.394;2024-02-15T06:15:58;39.49;37.70;41.30;;
40465;Laerm;30489;48.982;8.394;2024-02-15T06:18:08;39.51;37.32;41.14;;
40465;Laerm;30489;48.982;8.394;2024-02-15T06:20:20;39.49;37.52;41.06;;
40465;Laerm;30489;48.982;8.394;2024-02-15T06:22:31;39.48;37.52;41.22;;
40465;Laerm;30489;48.982;8.394;2024-02-15T06:24:41;39.48;37.35;41.14;;
40465;Laerm;30489;48.982;8.394;2024-02-15T06:26:51;39.48;37.32;41.22;;
40465;Laerm;30489;48.982;8.394;2024-02-15T06:29:07;39.49;37.35;41.06;;
40465;Laerm;30489;48.982;8.394;2024-02-15T06:31:36;39.50;37.70;41.06;;
40465;Laerm;30489;48.982;8.394;2024-02-15T06:34:05;39.48;37.12;40.98;;
40465;Laerm;30489;48.982;8.394;2024-02-15T06:36:34;39.47;37.12;41.06;;
40465;Laerm;30489;48.982;8.394;2024-02-15T06:39:03;39.48;37.52;41.14;;
40465;Laerm;30489;48.982;8.394;2024-02-15T06:41:32;39.45;37.12;41.26;;
40465;Laerm;30489;48.982;8.394;2024-02-15T06:43:42;39.40;36.91;41.06;;
40465;Laerm;30489;48.982;8.394;2024-02-15T06:45:53;39.42;37.32;41.06;;
40465;Laerm;30489;48.982;8.394;2024-02-15T06:48:03;39.43;37.32;43.58;;
40465;Laerm;30489;48.982;8.394;2024-02-15T06:50:13;39.46;37.52;41.22;;
40465;Laerm;30489;48.982;8.394;2024-02-15T06:52:24;39.44;37.52;41.06;;
40465;Laerm;30489;48.982;8.394;2024-02-15T06:54:34;39.44;37.12;41.06;;
40465;Laerm;30489;48.982;8.394;2024-02-15T06:56:45;39.45;37.52;41.30;;
40465;Laerm;30489;48.982;8.394;2024-02-15T06:58:58;39.42;37.32;41.22;;
40465;Laerm;30489;48.982;8.394;2024-02-15T07:01:08;39.44;37.32;41.06;;
40465;Laerm;30489;48.982;8.394;2024-02-15T07:03:19;39.44;36.91;41.46;;
40465;Laerm;30489;48.982;8.394;2024-02-15T07:05:29;39.44;37.32;41.06;;
40465;Laerm;30489;48.982;8.394;2024-02-15T07:07:39;39.43;37.32;41.14;;
40465;Laerm;30489;48.982;8.394;2024-02-15T07:09:52;39.42;37.12;41.30;;
40465;Laerm;30489;48.982;8.394;2024-02-15T07:12:03;39.41;37.52;44.62;;
40465;Laerm;30489;48.982;8.394;2024-02-15T07:14:13;39.42;37.12;41.22;;
40465;Laerm;30489;48.982;8.394;2024-02-15T07:16:23;39.41;37.32;41.14;;
40465;Laerm;30489;48.982;8.394;2024-02-15T07:18:33;39.42;37.70;41.14;;
40465;Laerm;30489;48.982;8.394;2024-02-15T07:20:45;39.42;37.52;41.22;;
40465;Laerm;30489;48.982;8.394;2024-02-15T07:22:55;39.41;37.12;41.03;;
40465;Laerm;30489;48.982;8.394;2024-02-15T07:25:05;39.41;37.52;41.22;;
40465;Laerm;30489;48.982;8.394;2024-02-15T07:27:15;39.40;37.52;41.06;;
40465;Laerm;30489;48.982;8.394;2024-02-15T07:29:26;39.40;37.32;41.06;;
40465;Laerm;30489;48.982;8.394;2024-02-15T07:31:37;39.41;36.69;41.22;;
40465;Laerm;30489;48.982;8.394;2024-02-15T07:33:49;39.42;37.32;41.22;;
40465;Laerm;30489;48.982;8.394;2024-02-15T07:36:01;39.41;37.32;41.14;;
40465;Laerm;30489;48.982;8.394;2024-02-15T07:38:11;39.42;36.91;41.14;;
40465;Laerm;30489;48.982;8.394;2024-02-15T07:40:21;39.40;37.32;41.14;;
40465;Laerm;30489;48.982;8.394;2024-02-15T07:42:32;39.41;37.52;41.06;;
40465;Laerm;30489;48.982;8.394;2024-02-15T07:44:42;39.43;37.52;41.06;;
40465;Laerm;30489;48.982;8.394;2024-02-15T07:46:53;39.41;37.32;41.14;;
40465;Laerm;30489;48.982;8.394;2024-02-15T07:49:03;39.43;37.52;41.14;;
40465;Laerm;30489;48.982;8.394;2024-02-15T07:51:14;39.42;37.52;41.14;;
40465;Laerm;30489;48.982;8.394;2024-02-15T07:53:25;39.46;37.12;41.38;;
40465;Laerm;30489;48.982;8.394;2024-02-15T07:55:35;39.44;36.91;41.22;;
40465;Laerm;30489;48.982;8.394;2024-02-15T07:57:45;39.45;37.70;41.06;;
40465;Laerm;30489;48.982;8.394;2024-02-15T07:59:58;39.46;37.32;41.06;;
40465;Laerm;30489;48.982;8.394;2024-02-15T08:02:09;39.47;37.52;41.14;;
40465;Laerm;30489;48.982;8.394;2024-02-15T08:04:19;39.50;37.32;41.14;;
40465;Laerm;30489;48.982;8.394;2024-02-15T08:06:31;39.47;37.52;41.14;;
40465;Laerm;30489;48.982;8.394;2024-02-15T08:08:43;39.49;37.52;41.38;;
40465;Laerm;30489;48.982;8.394;2024-02-15T08:10:55;39.50;37.52;43.63;;
40465;Laerm;30489;48.982;8.394;2024-02-15T08:13:06;39.50;37.52;41.30;;
40465;Laerm;30489;48.982;8.394;2024-02-15T08:15:16;39.51;37.52;41.38;;
40465;Laerm;30489;48.982;8.394;2024-02-15T08:17:26;39.52;37.70;41.14;;
40465;Laerm;30489;48.982;8.394;2024-02-15T08:19:36;39.54;36.91;41.11;;
40465;Laerm;30489;48.982;8.394;2024-02-15T08:21:48;39.55;37.32;41.30;;
40465;Laerm;30489;48.982;8.394;2024-02-15T08:24:01;39.57;37.70;41.22;;
40465;Laerm;30489;48.982;8.394;2024-02-15T08:26:15;39.59;37.70;41.14;;
40465;Laerm;30489;48.982;8.394;2024-02-15T08:28:26;39.61;37.52;41.26;;
40465;Laerm;30489;48.982;8.394;2024-02-15T08:30:38;39.64;37.70;41.30;;
40465;Laerm;30489;48.982;8.394;2024-02-15T08:32:48;39.67;37.52;41.30;;
40465;Laerm;30489;48.982;8.394;2024-02-15T08:34:58;39.66;37.88;41.14;;
40465;Laerm;30489;48.982;8.394;2024-02-15T08:37:09;39.68;37.88;41.38;;
40465;Laerm;30489;48.982;8.394;2024-02-15T08:39:19;39.68;37.52;41.38;;
40465;Laerm;30489;48.982;8.394;2024-02-15T08:41:31;39.71;37.88;41.30;;
40465;Laerm;30489;48.982;8.394;2024-02-15T08:43:41;39.70;37.88;41.33;;
40465;Laerm;30489;48.982;8.394;2024-02-15T08:45:52;39.70;37.88;41.61;;
40465;Laerm;30489;48.982;8.394;2024-02-15T08:48:03;39.69;37.88;41.14;;
40465;Laerm;30489;48.982;8.394;2024-02-15T08:50:14;39.74;37.70;41.14;;
40465;Laerm;30489;48.982;8.394;2024-02-15T08:52:25;39.76;38.05;41.30;;
40465;Laerm;30489;48.982;8.394;2024-02-15T08:54:36;39.80;38.05;41.38;;
40465;Laerm;30489;48.982;8.394;2024-02-15T08:56:48;39.82;37.70;41.53;;
40465;Laerm;30489;48.982;8.394;2024-02-15T08:58:58;39.84;37.70;41.22;;
40465;Laerm;30489;48.982;8.394;2024-02-15T09:01:09;39.84;38.05;41.22;;
40465;Laerm;30489;48.982;8.394;2024-02-15T09:03:19;39.86;37.87;41.30;;
40465;Laerm;30489;48.982;8.394;2024-02-15T09:05:30;39.85;37.88;41.38;;
40465;Laerm;30489;48.982;8.394;2024-02-15T09:07:40;39.86;37.88;41.30;;
40465;Laerm;30489;48.982;8.394;2024-02-15T09:09:52;39.86;37.88;41.14;;
40465;Laerm;30489;48.982;8.394;2024-02-15T09:12:02;39.87;38.21;41.30;;
40465;Laerm;30489;48.982;8.394;2024-02-15T09:14:15;39.90;38.05;41.61;;
40465;Laerm;30489;48.982;8.394;2024-02-15T09:16:26;39.94;38.21;41.61;;
40465;Laerm;30489;48.982;8.394;2024-02-15T09:18:36;39.95;37.88;41.30;;
40465;Laerm;30489;48.982;8.394;2024-02-15T09:20:47;39.98;38.21;41.68;;
40465;Laerm;30489;48.982;8.394;2024-02-15T09:22:59;39.99;38.05;41.22;;
40465;Laerm;30489;48.982;8.394;2024-02-15T09:25:14;39.99;38.05;41.46;;
40465;Laerm;30489;48.982;8.394;2024-02-15T09:27:25;40.01;38.21;41.61;;
40465;Laerm;30489;48.982;8.394;2024-02-15T09:29:35;40.02;38.05;41.41;;
40465;Laerm;30489;48.982;8.394;2024-02-15T09:31:46;40.02;38.21;41.68;;
40465;Laerm;30489;48.982;8.394;2024-02-15T09:33:56;40.05;37.70;41.68;;
40465;Laerm;30489;48.982;8.394;2024-02-15T09:36:08;40.06;38.37;41.53;;
40465;Laerm;30489;48.982;8.394;2024-02-15T09:38:18;40.08;38.47;41.53;;
40465;Laerm;30489;48.982;8.394;2024-02-15T09:40:29;40.09;38.21;41.53;;
40465;Laerm;30489;48.982;8.394;2024-02-15T09:42:40;40.12;37.52;41.53;;
40465;Laerm;30489;48.982;8.394;2024-02-15T09:44:50;40.15;38.37;41.68;;
40465;Laerm;30489;48.982;8.394;2024-02-15T09:47:04;40.15;38.37;41.68;;
40465;Laerm;30489;48.982;8.394;2024-02-15T09:49:15;40.16;38.52;41.61;;
40465;Laerm;30489;48.982;8.394;2024-02-15T09:51:26;40.18;37.88;41.53;;
40465;Laerm;30489;48.982;8.394;2024-02-15T09:53:37;40.25;38.52;41.68;;
40465;Laerm;30489;48.982;8.394;2024-02-15T09:55:47;40.27;38.67;41.61;;
40465;Laerm;30489;48.982;8.394;2024-02-15T09:57:58;40.32;38.52;41.89;;
40465;Laerm;30489;48.982;8.394;2024-02-15T10:00:10;40.38;38.81;41.96;;
40465;Laerm;30489;48.982;8.394;2024-02-15T10:02:23;40.37;38.52;41.82;;
40465;Laerm;30489;48.982;8.394;2024-02-15T10:04:34;40.42;38.95;42.09;;
40465;Laerm;30489;48.982;8.394;2024-02-15T10:06:44;40.48;39.08;42.09;;
40465;Laerm;30489;48.982;8.394;2024-02-15T10:08:55;40.46;38.81;42.03;;
40465;Laerm;30489;48.982;8.394;2024-02-15T10:11:25;40.46;38.95;41.82;;
40465;Laerm;30489;48.982;8.394;2024-02-15T10:13:35;40.51;38.81;41.75;;
40465;Laerm;30489;48.982;8.394;2024-02-15T10:15:46;40.54;39.08;41.68;;
40465;Laerm;30489;48.982;8.394;2024-02-15T10:17:58;40.56;38.81;41.96;;
40465;Laerm;30489;48.982;8.394;2024-02-15T10:20:09;40.56;39.08;41.75;;
40465;Laerm;30489;48.982;8.394;2024-02-15T10:22:21;40.57;38.67;41.89;;
40465;Laerm;30489;48.982;8.394;2024-02-15T10:24:34;40.56;38.81;41.89;;
40465;Laerm;30489;48.982;8.394;2024-02-15T10:26:45;40.58;38.67;41.82;;
40465;Laerm;30489;48.982;8.394;2024-02-15T10:29:04;40.64;38.95;42.16;;
40465;Laerm;30489;48.982;8.394;2024-02-15T10:31:15;40.67;39.21;41.96;;
40465;Laerm;30489;48.982;8.394;2024-02-15T10:33:26;40.68;38.81;42.03;;
40465;Laerm;30489;48.982;8.394;2024-02-15T10:35:36;40.69;39.08;42.16;;
40465;Laerm;30489;48.982;8.394;2024-02-15T10:37:49;40.73;39.08;42.03;;
40465;Laerm;30489;48.982;8.394;2024-02-15T10:40:06;40.73;39.34;42.03;;
40465;Laerm;30489;48.982;8.394;2024-02-15T10:42:17;40.75;39.08;42.03;;
40465;Laerm;30489;48.982;8.394;2024-02-15T10:44:28;40.76;38.95;42.09;;
40465;Laerm;30489;48.982;8.394;2024-02-15T10:46:38;40.79;39.21;44.73;;
40465;Laerm;30489;48.982;8.394;2024-02-15T10:48:50;40.80;38.95;42.03;;
40465;Laerm;30489;48.982;8.394;2024-02-15T10:51:00;40.80;39.21;42.03;;
40465;Laerm;30489;48.982;8.394;2024-02-15T10:53:19;40.85;39.21;42.03;;
40465;Laerm;30489;48.982;8.394;2024-02-15T10:55:37;40.86;39.46;42.16;;
40465;Laerm;30489;48.982;8.394;2024-02-15T10:57:48;40.88;39.46;42.22;;
40465;Laerm;30489;48.982;8.394;2024-02-15T11:00:01;40.90;39.34;42.16;;
40465;Laerm;30489;48.982;8.394;2024-02-15T11:04:31;40.97;39.58;42.22;;
40465;Laerm;30489;48.982;8.394;2024-02-15T11:06:43;40.98;39.34;42.29;;
40465;Laerm;30489;48.982;8.394;2024-02-15T11:08:54;40.99;39.46;42.16;;
40465;Laerm;30489;48.982;8.394;2024-02-15T11:11:04;41.00;39.46;42.29;;
40465;Laerm;30489;48.982;8.394;2024-02-15T11:13:15;41.02;39.58;42.29;;
40465;Laerm;30489;48.982;8.394;2024-02-15T11:15:41;41.06;39.34;42.47;;
40465;Laerm;30489;48.982;8.394;2024-02-15T11:17:52;41.08;39.70;42.35;;
40465;Laerm;30489;48.982;8.394;2024-02-15T11:20:06;41.09;39.92;42.22;;
40465;Laerm;30489;48.982;8.394;2024-02-15T11:22:21;41.09;39.70;42.76;;
40465;Laerm;30489;48.982;8.394;2024-02-15T11:24:33;41.12;39.92;42.41;;
40465;Laerm;30489;48.982;8.394;2024-02-15T11:26:46;41.14;39.70;42.29;;
40465;Laerm;30489;48.982;8.394;2024-02-15T11:28:59;41.17;39.58;42.41;;
40465;Laerm;30489;48.982;8.394;2024-02-15T11:31:10;41.19;39.70;43.24;;
40465;Laerm;30489;48.982;8.394;2024-02-15T11:33:27;41.22;39.81;42.53;;
40465;Laerm;30489;48.982;8.394;2024-02-15T11:35:39;41.27;39.92;42.59;;
40465;Laerm;30489;48.982;8.394;2024-02-15T11:38:10;41.33;39.58;42.93;;
40465;Laerm;30489;48.982;8.394;2024-02-15T11:43:00;41.35;39.70;42.47;;
40465;Laerm;30489;48.982;8.394;2024-02-15T11:45:11;41.34;39.92;42.65;;
40465;Laerm;30489;48.982;8.394;2024-02-15T11:47:21;41.35;39.81;42.47;;
40465;Laerm;30489;48.982;8.394;2024-02-15T11:49:32;41.40;39.81;45.23;;
40465;Laerm;30489;48.982;8.394;2024-02-15T11:51:42;41.43;39.92;42.59;;
40465;Laerm;30489;48.982;8.394;2024-02-15T11:54:02;41.46;39.81;42.59;;
40465;Laerm;30489;48.982;8.394;2024-02-15T11:56:16;41.47;40.23;42.59;;
40465;Laerm;30489;48.982;8.394;2024-02-15T11:58:26;41.49;40.03;42.82;;
40465;Laerm;30489;48.982;8.394;2024-02-15T12:00:51;41.49;40.23;42.59;;
40465;Laerm;30489;48.982;8.394;2024-02-15T12:03:20;41.48;40.13;42.59;;
40465;Laerm;30489;48.982;8.394;2024-02-15T12:05:49;41.46;40.03;42.71;;
40465;Laerm;30489;48.982;8.394;2024-02-15T12:08:18;41.51;40.23;42.65;;
40465;Laerm;30489;48.982;8.394;2024-02-15T12:10:56;41.54;40.13;42.65;;
40465;Laerm;30489;48.982;8.394;2024-02-15T12:13:25;41.53;40.13;42.64;;
40465;Laerm;30489;48.982;8.394;2024-02-15T12:16:00;41.52;40.23;42.69;;
40465;Laerm;30489;48.982;8.394;2024-02-15T12:18:29;41.55;40.43;42.74;;
40465;Laerm;30489;48.982;8.394;2024-02-15T12:20:56;41.55;40.23;42.76;;
40465;Laerm;30489;48.982;8.394;2024-02-15T12:23:06;41.54;40.03;42.65;;
40465;Laerm;30489;48.982;8.394;2024-02-15T12:25:17;41.54;40.23;42.82;;